createdAt,value
2018-02-23T16:03:36.227Z,37.40
2018-02-23T16:09:42.115Z,36.50
2018-02-23T16:15:48.290Z,38.00
2018-02-23T16:21:54.326Z,38.10
2018-02-23T16:27:59.443Z,38.00
2018-02-23T16:34:04.158Z,38.00
2018-02-23T16:40:09.052Z,39.30
2018-02-23T16:46:14.244Z,39.50
2018-02-23T16:52:19.988Z,41.90
2018-02-23T16:58:24.758Z,42.00
2018-02-23T17:04:29.532Z,45.00
2018-02-23T17:10:34.144Z,46.10
2018-02-23T17:16:40.117Z,49.70
2018-02-23T17:22:44.870Z,49.30
2018-02-23T17:28:52.326Z,50.90
2018-02-23T17:34:57.171Z,54.00
2018-02-23T17:41:02.450Z,53.90
2018-02-23T17:47:07.217Z,55.50
2018-02-23T17:53:12.289Z,57.30
2018-02-23T17:59:17.094Z,58.00
2018-02-23T18:05:26.002Z,60.20
2018-02-23T18:11:30.628Z,62.00
2018-02-23T18:17:35.419Z,63.80
2018-02-23T18:23:40.260Z,65.80
2018-02-23T18:29:46.153Z,69.80
2018-02-23T18:35:52.513Z,68.80
2018-02-23T18:41:57.835Z,69.40
2018-02-23T18:48:04.847Z,73.30
2018-02-23T18:54:09.646Z,73.20
2018-02-23T19:00:15.195Z,73.10
2018-02-23T19:06:20.106Z,73.10
2018-02-23T19:12:24.794Z,73.40
2018-02-23T19:18:30.360Z,75.00
2018-02-23T19:24:35.032Z,75.00
2018-02-23T19:30:39.735Z,71.50
2018-02-23T19:36:44.335Z,71.40
2018-02-23T19:42:50.947Z,71.10
2018-02-23T19:48:56.858Z,71.00
2018-02-23T19:55:01.532Z,71.60
2018-02-23T20:01:06.516Z,70.40
2018-02-23T20:07:11.397Z,71.20
2018-02-23T20:13:16.862Z,71.20
2018-02-23T20:19:23.347Z,73.00
2018-02-23T20:25:28.112Z,75.50
2018-02-23T20:31:32.808Z,75.20
2018-02-23T20:37:39.074Z,78.30
2018-02-23T20:43:44.713Z,78.20
2018-02-23T20:49:50.773Z,80.00
2018-02-23T20:55:56.440Z,83.40
2018-02-23T21:02:01.477Z,82.50
2018-02-23T21:08:06.268Z,82.50
2018-02-23T21:14:11.200Z,81.10
2018-02-23T21:20:15.954Z,82.80
2018-02-23T21:26:20.939Z,82.90
2018-02-23T21:32:26.088Z,83.70
2018-02-23T21:38:30.736Z,83.30
2018-02-23T21:44:48.151Z,81.70
2018-02-23T21:50:53.161Z,81.60
2018-02-23T21:56:58.742Z,79.10
2018-02-23T22:03:03.428Z,79.10
2018-02-23T22:09:09.723Z,75.50
2018-02-23T22:15:14.461Z,78.10
2018-02-23T22:21:20.023Z,79.60
2018-02-23T22:27:25.386Z,79.50
2018-02-23T22:33:30.081Z,81.30
2018-02-23T22:39:34.806Z,83.80
2018-02-23T22:45:40.200Z,83.30
2018-02-23T22:51:46.024Z,84.00
2018-02-23T22:57:51.568Z,84.00
2018-02-23T23:03:56.474Z,84.80
2018-02-23T23:10:01.097Z,83.80
2018-02-23T23:16:07.236Z,84.80
2018-02-23T23:22:12.096Z,84.70
2018-02-23T23:28:17.051Z,86.60
2018-02-23T23:34:23.488Z,86.70
2018-02-23T23:40:28.869Z,89.00
2018-02-23T23:46:33.588Z,88.90
2018-02-23T23:52:38.365Z,88.80
2018-02-23T23:58:44.852Z,86.90
